createdAt,value
2018-03-30T00:00:32.250Z,9.50
2018-03-30T00:03:01.397Z,9.51
2018-03-30T00:05:30.321Z,9.48
2018-03-30T00:07:59.645Z,9.45
2018-03-30T00:10:28.557Z,9.49
2018-03-30T00:12:57.479Z,9.47
2018-03-30T00:15:26.763Z,9.48
2018-03-30T00:17:55.681Z,9.46
2018-03-30T00:20:24.602Z,9.46
2018-03-30T00:22:54.101Z,9.41
2018-03-30T00:25:23.019Z,9.40
2018-03-30T00:27:51.931Z,9.39
2018-03-30T00:30:22.220Z,9.39
2018-03-30T00:35:33.261Z,9.40
2018-03-30T00:38:03.143Z,9.37
2018-03-30T00:40:32.425Z,9.37
2018-03-30T00:43:01.976Z,9.36
2018-03-30T00:45:30.867Z,9.36
2018-03-30T00:47:59.779Z,9.38
2018-03-30T00:50:29.624Z,9.37
2018-03-30T00:52:58.556Z,9.34
2018-03-30T00:55:27.591Z,9.34
2018-03-30T00:57:56.880Z,9.32
2018-03-30T01:00:25.893Z,9.28
2018-03-30T01:02:54.898Z,9.29
2018-03-30T01:05:24.255Z,9.28
2018-03-30T01:07:53.165Z,9.18
2018-03-30T01:10:22.066Z,9.02
2018-03-30T01:12:51.337Z,9.00
2018-03-30T01:15:20.364Z,8.95
2018-03-30T01:17:49.280Z,8.94
2018-03-30T01:20:18.700Z,8.91
2018-03-30T01:22:47.625Z,8.85
2018-03-30T01:25:16.528Z,8.82
2018-03-30T01:27:45.808Z,8.75
2018-03-30T01:30:14.810Z,8.73
2018-03-30T01:32:43.845Z,8.63
2018-03-30T01:35:13.219Z,8.62
2018-03-30T01:37:42.154Z,8.58
2018-03-30T01:40:11.144Z,8.51
2018-03-30T01:42:40.560Z,8.40
2018-03-30T01:45:09.539Z,8.33
2018-03-30T01:47:38.585Z,8.35
2018-03-30T01:50:08.058Z,8.33
2018-03-30T01:52:37.008Z,8.32
2018-03-30T01:55:05.915Z,8.34
2018-03-30T01:57:35.252Z,8.39
2018-03-30T02:00:05.556Z,8.39
2018-03-30T02:02:34.541Z,8.39
2018-03-30T02:05:04.332Z,8.35
2018-03-30T02:07:33.260Z,8.31
2018-03-30T02:10:03.024Z,8.32
2018-03-30T02:12:32.224Z,8.34
2018-03-30T02:15:01.428Z,8.29
2018-03-30T02:17:30.320Z,8.25
2018-03-30T02:19:59.247Z,8.19
2018-03-30T02:22:28.594Z,8.20
2018-03-30T02:24:57.834Z,8.21
2018-03-30T02:27:26.739Z,8.20
2018-03-30T02:29:55.847Z,8.23
2018-03-30T02:32:25.105Z,8.24
2018-03-30T02:34:54.164Z,8.25
2018-03-30T02:37:23.063Z,8.20
2018-03-30T02:39:52.318Z,8.19
2018-03-30T02:42:21.466Z,8.22
2018-03-30T02:44:50.434Z,8.26
2018-03-30T02:47:20.851Z,8.20
2018-03-30T02:49:49.730Z,8.03
2018-03-30T02:52:18.681Z,7.98
2018-03-30T02:55:02.760Z,7.97
2018-03-30T02:57:31.673Z,8.00
2018-03-30T03:00:01.057Z,7.92
2018-03-30T03:02:30.300Z,7.85
2018-03-30T03:04:59.251Z,7.83
2018-03-30T03:07:28.650Z,7.84
2018-03-30T03:09:57.609Z,7.85
2018-03-30T03:12:26.552Z,7.88
2018-03-30T03:14:55.787Z,7.90
2018-03-30T03:17:24.726Z,7.86
2018-03-30T03:19:53.708Z,7.85
2018-03-30T03:22:23.566Z,7.82
2018-03-30T03:24:52.469Z,7.82
2018-03-30T03:27:21.805Z,7.83
2018-03-30T03:29:50.733Z,7.82
2018-03-30T03:32:19.729Z,7.83
2018-03-30T03:34:48.677Z,7.85
2018-03-30T03:37:17.841Z,7.85
2018-03-30T03:39:47.137Z,7.86
2018-03-30T03:42:16.048Z,7.85
2018-03-30T03:44:45.009Z,7.88
2018-03-30T03:47:14.256Z,7.90
2018-03-30T03:49:43.173Z,7.91
2018-03-30T03:52:12.138Z,7.92
2018-03-30T03:54:41.534Z,7.95
2018-03-30T03:57:10.504Z,7.96
2018-03-30T03:59:39.498Z,7.95
2018-03-30T04:02:08.884Z,7.94
2018-03-30T04:04:37.805Z,7.94
2018-03-30T04:07:06.773Z,7.94
2018-03-30T04:09:35.967Z,7.94
2018-03-30T04:12:05.510Z,7.94
2018-03-30T04:14:34.365Z,7.91
2018-03-30T04:17:03.679Z,7.84
2018-03-30T04:19:32.569Z,7.84
2018-03-30T04:22:03.359Z,7.83
2018-03-30T04:24:32.660Z,7.70
2018-03-30T04:27:01.576Z,7.64
2018-03-30T04:29:30.458Z,7.60
2018-03-30T04:31:59.679Z,7.57
2018-03-30T04:34:28.810Z,7.53
2018-03-30T04:36:57.759Z,7.52
2018-03-30T04:39:27.413Z,7.44
2018-03-30T04:41:56.331Z,7.38
2018-03-30T04:44:25.752Z,7.32
2018-03-30T04:46:54.983Z,7.25
2018-03-30T04:49:24.193Z,7.23
2018-03-30T04:51:53.119Z,7.24
2018-03-30T04:54:22.353Z,7.25
2018-03-30T04:56:51.248Z,7.22
2018-03-30T04:59:20.841Z,7.23
2018-03-30T05:01:50.144Z,7.24
2018-03-30T05:04:19.168Z,7.25
2018-03-30T05:06:48.098Z,7.26
2018-03-30T05:09:17.334Z,7.30
2018-03-30T05:11:46.262Z,7.24
2018-03-30T05:14:15.212Z,7.21
2018-03-30T05:16:44.465Z,7.21
2018-03-30T05:19:13.361Z,7.21
2018-03-30T05:21:42.309Z,7.22
2018-03-30T05:24:11.588Z,7.23
2018-03-30T05:26:40.514Z,7.26
2018-03-30T05:29:09.396Z,7.28
2018-03-30T05:31:38.581Z,7.28
2018-03-30T05:34:07.481Z,7.24
2018-03-30T05:36:36.371Z,7.21
2018-03-30T05:39:06.072Z,7.20
2018-03-30T05:41:34.992Z,7.21
2018-03-30T05:44:04.577Z,7.20
2018-03-30T05:46:33.794Z,7.23
2018-03-30T05:49:03.057Z,7.25
2018-03-30T05:51:31.966Z,7.28
2018-03-30T05:54:01.259Z,7.33
2018-03-30T05:56:30.205Z,7.38
2018-03-30T05:58:59.105Z,7.40
2018-03-30T06:01:28.287Z,7.43
2018-03-30T06:03:57.184Z,7.50
2018-03-30T06:06:26.372Z,7.64
2018-03-30T06:08:55.563Z,7.71
2018-03-30T06:11:25.010Z,7.82
2018-03-30T06:13:53.906Z,7.89
2018-03-30T06:16:23.117Z,7.91
2018-03-30T06:18:52.009Z,7.96
2018-03-30T06:21:21.081Z,8.05
2018-03-30T06:23:50.338Z,8.18
2018-03-30T06:26:19.490Z,8.36
2018-03-30T06:28:48.527Z,8.60
2018-03-30T06:31:18.278Z,8.72
2018-03-30T06:33:47.273Z,8.83
2018-03-30T06:36:16.202Z,8.91
2018-03-30T06:38:45.424Z,9.04
2018-03-30T06:41:14.582Z,9.17
2018-03-30T06:43:43.500Z,9.25
2018-03-30T06:46:12.761Z,9.33
2018-03-30T06:48:41.838Z,9.42
2018-03-30T06:51:10.859Z,9.46
2018-03-30T06:53:40.711Z,9.52
2018-03-30T06:56:09.603Z,9.54
2018-03-30T06:58:38.565Z,9.60
2018-03-30T07:01:07.796Z,9.71
2018-03-30T07:03:37.160Z,9.75
2018-03-30T07:06:06.126Z,9.80
2018-03-30T07:08:35.367Z,9.86
2018-03-30T07:11:04.495Z,9.90
2018-03-30T07:13:33.501Z,9.95
2018-03-30T07:16:03.902Z,9.98
2018-03-30T07:18:32.856Z,10.02
2018-03-30T07:21:02.052Z,10.11
2018-03-30T07:23:33.341Z,10.16
2018-03-30T07:26:03.258Z,10.25
2018-03-30T07:28:33.424Z,10.33
2018-03-30T07:31:02.856Z,10.38
2018-03-30T07:33:32.651Z,10.44
2018-03-30T07:36:02.413Z,10.51
2018-03-30T07:38:31.621Z,10.48
2018-03-30T07:41:00.579Z,10.51
2018-03-30T07:43:29.496Z,10.48
2018-03-30T07:45:58.761Z,10.39
2018-03-30T07:48:28.779Z,10.37
2018-03-30T07:50:57.768Z,10.38
2018-03-30T07:53:26.731Z,10.50
2018-03-30T07:55:55.639Z,10.59
2018-03-30T07:58:25.929Z,10.60
2018-03-30T08:00:54.857Z,10.68
2018-03-30T08:03:23.810Z,10.72
2018-03-30T08:05:52.773Z,10.79
2018-03-30T08:08:21.713Z,10.90
2018-03-30T08:10:51.045Z,11.03
2018-03-30T08:13:20.081Z,11.13
2018-03-30T08:15:49.092Z,11.18
2018-03-30T08:18:18.507Z,11.24
2018-03-30T08:20:47.454Z,11.36
2018-03-30T08:23:16.403Z,11.50
2018-03-30T08:25:45.729Z,11.59
2018-03-30T08:28:14.686Z,11.45
2018-03-30T08:30:44.240Z,11.52
2018-03-30T08:33:13.655Z,11.66
2018-03-30T08:35:42.814Z,11.72
2018-03-30T08:38:11.794Z,11.82
2018-03-30T08:40:41.105Z,11.91
2018-03-30T08:43:10.102Z,12.00
2018-03-30T08:45:39.023Z,12.04
2018-03-30T08:48:08.215Z,12.06
2018-03-30T08:50:38.144Z,12.22
2018-03-30T08:53:07.068Z,12.45
2018-03-30T08:55:36.261Z,12.57
2018-03-30T08:58:06.186Z,12.73
2018-03-30T09:00:35.106Z,12.92
2018-03-30T09:03:04.990Z,13.10
2018-03-30T09:05:34.118Z,13.29
2018-03-30T09:08:04.352Z,13.45
2018-03-30T09:10:34.842Z,13.58
2018-03-30T09:13:04.065Z,13.74
2018-03-30T09:15:33.109Z,13.93
2018-03-30T09:18:03.066Z,13.96
2018-03-30T09:20:32.086Z,14.29
2018-03-30T09:23:01.038Z,14.40
2018-03-30T09:25:30.346Z,14.55
2018-03-30T09:27:59.269Z,14.70
2018-03-30T09:30:28.417Z,15.03
2018-03-30T09:32:57.666Z,15.28
2018-03-30T09:35:27.013Z,15.28
2018-03-30T09:37:56.276Z,15.44
2018-03-30T09:40:25.486Z,15.50
2018-03-30T09:42:54.402Z,15.70
2018-03-30T09:45:23.308Z,15.82
2018-03-30T09:47:52.564Z,16.13
2018-03-30T09:50:21.536Z,16.38
2018-03-30T09:52:50.446Z,16.68
2018-03-30T09:55:19.887Z,16.97
2018-03-30T09:57:48.844Z,16.94
2018-03-30T10:00:21.554Z,16.81
2018-03-30T10:02:53.672Z,16.88
2018-03-30T10:05:22.629Z,17.17
2018-03-30T10:07:51.632Z,17.43
2018-03-30T10:10:22.144Z,17.74
2018-03-30T10:12:51.092Z,17.74
2018-03-30T10:15:20.356Z,18.10
2018-03-30T10:17:49.260Z,18.17
2018-03-30T10:20:18.238Z,18.53
2018-03-30T10:22:47.352Z,18.27
2018-03-30T10:25:16.210Z,18.60
2018-03-30T10:27:45.059Z,18.92
2018-03-30T10:30:14.293Z,19.21
2018-03-30T10:32:43.224Z,19.33
2018-03-30T10:35:12.122Z,19.59
2018-03-30T10:37:42.846Z,19.15
2018-03-30T10:40:11.842Z,19.63
2018-03-30T10:42:40.765Z,19.75
2018-03-30T10:45:10.016Z,19.87
2018-03-30T10:47:38.911Z,19.30
2018-03-30T10:50:08.036Z,19.42
2018-03-30T10:52:39.430Z,19.05
2018-03-30T10:57:40.551Z,18.96
2018-03-30T11:00:09.812Z,19.09
2018-03-30T11:02:38.965Z,19.11
2018-03-30T11:05:07.968Z,18.86
2018-03-30T11:07:37.341Z,18.75
2018-03-30T11:10:06.309Z,18.47
2018-03-30T11:12:35.298Z,18.51
2018-03-30T11:15:04.931Z,18.58
2018-03-30T11:17:34.365Z,18.72
2018-03-30T11:20:04.882Z,18.74
2018-03-30T11:22:33.858Z,18.67
2018-03-30T11:25:02.980Z,18.62
2018-03-30T11:27:32.208Z,18.36
2018-03-30T11:30:01.346Z,18.08
2018-03-30T11:32:30.320Z,17.79
2018-03-30T11:34:59.326Z,17.74
2018-03-30T11:37:28.253Z,17.62
2018-03-30T11:39:57.499Z,17.53
2018-03-30T11:42:26.415Z,17.51
2018-03-30T11:44:55.409Z,17.46
2018-03-30T11:47:24.896Z,17.47
2018-03-30T11:49:53.813Z,17.21
2018-03-30T11:52:23.109Z,17.07
2018-03-30T11:54:52.457Z,17.16
2018-03-30T11:57:21.549Z,17.14
2018-03-30T11:59:50.492Z,17.23
2018-03-30T12:02:19.859Z,17.19
2018-03-30T12:04:48.778Z,17.12
2018-03-30T12:07:17.820Z,17.13
2018-03-30T12:09:47.088Z,17.08
2018-03-30T12:12:16.084Z,16.76
2018-03-30T12:14:45.085Z,16.76
2018-03-30T12:17:14.393Z,16.63
2018-03-30T12:19:43.375Z,16.66
2018-03-30T12:22:12.277Z,16.82
2018-03-30T12:24:41.490Z,16.89
2018-03-30T12:27:10.417Z,16.87
2018-03-30T12:29:39.338Z,16.89
2018-03-30T12:32:08.538Z,16.99
2018-03-30T12:34:38.368Z,17.08
2018-03-30T12:37:07.408Z,17.09
2018-03-30T12:39:36.624Z,16.77
2018-03-30T12:42:06.752Z,16.90
2018-03-30T12:44:35.784Z,16.87
2018-03-30T12:47:06.040Z,16.97
2018-03-30T12:49:34.954Z,16.98
2018-03-30T12:52:05.084Z,16.98
2018-03-30T12:54:35.032Z,16.97
2018-03-30T12:57:04.237Z,16.89
2018-03-30T12:59:34.361Z,16.86
2018-03-30T13:02:04.109Z,16.78
2018-03-30T13:04:33.063Z,16.77
2018-03-30T13:07:02.078Z,16.74
2018-03-30T13:09:31.225Z,16.74
2018-03-30T13:12:00.576Z,16.72
2018-03-30T13:14:29.646Z,16.70
2018-03-30T13:16:58.589Z,16.60
2018-03-30T13:19:27.553Z,16.52
2018-03-30T13:21:56.506Z,16.47
2018-03-30T13:24:25.756Z,16.41
2018-03-30T13:26:54.716Z,16.37
2018-03-30T13:29:23.664Z,16.39
2018-03-30T13:31:57.700Z,16.39
2018-03-30T13:34:26.637Z,16.45
2018-03-30T13:36:55.559Z,16.35
2018-03-30T13:39:25.212Z,16.31
2018-03-30T13:41:54.155Z,16.24
2018-03-30T13:44:23.169Z,16.23
2018-03-30T13:46:52.433Z,16.20
2018-03-30T13:49:21.440Z,16.17
2018-03-30T13:51:50.494Z,16.14
2018-03-30T13:54:19.982Z,16.13
2018-03-30T13:56:49.012Z,16.12
2018-03-30T13:59:18.058Z,16.13
2018-03-30T14:01:47.348Z,15.97
2018-03-30T14:04:16.379Z,15.79
2018-03-30T14:06:45.470Z,15.67
2018-03-30T14:09:15.186Z,15.68
2018-03-30T14:11:44.519Z,15.73
2018-03-30T14:14:13.493Z,15.79
2018-03-30T14:16:42.853Z,15.81
2018-03-30T14:19:11.864Z,15.81
2018-03-30T14:21:41.073Z,15.89
2018-03-30T14:24:10.129Z,15.90
2018-03-30T14:26:39.258Z,15.93
2018-03-30T14:29:08.271Z,15.97
2018-03-30T14:31:37.551Z,15.99
2018-03-30T14:34:06.502Z,16.02
2018-03-30T14:36:36.272Z,16.06
2018-03-30T14:39:07.232Z,16.09
2018-03-30T14:41:36.144Z,16.19
2018-03-30T14:44:06.793Z,16.26
2018-03-30T14:46:38.509Z,16.24
2018-03-30T14:49:07.493Z,16.24
2018-03-30T14:51:36.563Z,16.26
2018-03-30T14:54:07.320Z,16.29
2018-03-30T14:56:36.448Z,16.28
2018-03-30T14:59:05.933Z,16.25
2018-03-30T15:01:35.220Z,16.25
2018-03-30T15:04:04.939Z,16.28
2018-03-30T15:06:34.857Z,16.26
2018-03-30T15:09:07.410Z,16.28
2018-03-30T15:11:36.757Z,16.30
2018-03-30T15:14:06.695Z,16.33
2018-03-30T15:16:35.713Z,16.37
2018-03-30T15:19:05.696Z,16.40
2018-03-30T15:21:35.012Z,16.43
2018-03-30T15:24:05.570Z,16.37
2018-03-30T15:26:34.996Z,16.39
2018-03-30T15:29:04.546Z,16.36
2018-03-30T15:31:35.094Z,16.41
2018-03-30T15:34:05.322Z,16.46
2018-03-30T15:36:34.732Z,16.59
2018-03-30T15:39:04.311Z,16.59
2018-03-30T15:41:34.107Z,16.59
2018-03-30T15:44:04.803Z,16.59
2018-03-30T15:46:34.440Z,16.51
2018-03-30T15:49:04.395Z,16.48
2018-03-30T15:51:34.804Z,16.42
2018-03-30T15:54:03.267Z,16.35
2018-03-30T15:56:33.551Z,16.31
2018-03-30T15:59:04.054Z,16.25
2018-03-30T16:01:33.063Z,16.25
2018-03-30T16:04:02.915Z,16.22
2018-03-30T16:06:32.235Z,16.12
2018-03-30T16:09:01.544Z,16.08
2018-03-30T16:11:30.666Z,15.99
2018-03-30T16:14:00.073Z,15.96
2018-03-30T16:16:29.973Z,16.03
2018-03-30T16:18:57.477Z,15.98
2018-03-30T16:21:25.550Z,15.96
2018-03-30T16:23:53.316Z,15.94
2018-03-30T16:26:20.788Z,15.85
2018-03-30T16:28:48.569Z,15.89
2018-03-30T16:31:16.128Z,15.83
2018-03-30T16:33:44.299Z,15.79
2018-03-30T16:36:12.053Z,15.78
2018-03-30T16:38:39.529Z,15.73
2018-03-30T16:41:07.002Z,15.71
2018-03-30T16:43:34.761Z,15.69
2018-03-30T16:46:02.956Z,15.62
2018-03-30T16:48:30.937Z,15.48
2018-03-30T16:50:58.719Z,15.48
2018-03-30T16:53:26.386Z,15.46
2018-03-30T16:55:53.920Z,15.41
2018-03-30T16:58:21.667Z,15.41
2018-03-30T17:00:49.640Z,15.30
2018-03-30T17:03:17.091Z,15.23
2018-03-30T17:05:44.876Z,15.10
2018-03-30T17:08:12.660Z,14.99
2018-03-30T17:10:40.153Z,14.73
2018-03-30T17:13:08.108Z,14.56
2018-03-30T17:15:35.689Z,14.43
2018-03-30T17:18:04.076Z,14.34
2018-03-30T17:20:31.939Z,14.37
2018-03-30T17:22:59.595Z,14.22
2018-03-30T17:25:27.645Z,14.16
2018-03-30T17:27:55.236Z,14.01
2018-03-30T17:30:23.076Z,14.03
2018-03-30T17:32:51.641Z,14.00
2018-03-30T17:35:19.952Z,13.89
2018-03-30T17:37:47.509Z,13.85
2018-03-30T17:40:15.263Z,13.83
2018-03-30T17:42:42.878Z,13.78
2018-03-30T17:45:10.488Z,13.82
2018-03-30T17:47:38.326Z,13.84
2018-03-30T17:50:05.795Z,13.78
2018-03-30T17:52:33.646Z,13.81
2018-03-30T17:55:01.764Z,13.81
2018-03-30T17:57:29.313Z,13.86
2018-03-30T17:59:56.851Z,13.84
2018-03-30T18:02:24.667Z,13.91
2018-03-30T18:04:52.175Z,13.80
2018-03-30T18:07:20.026Z,13.67
2018-03-30T18:09:48.848Z,13.57
2018-03-30T18:12:16.424Z,13.44
2018-03-30T18:14:43.906Z,13.31
2018-03-30T18:17:11.635Z,13.30
2018-03-30T18:19:39.255Z,13.35
2018-03-30T18:22:07.032Z,13.33
2018-03-30T18:24:34.824Z,13.27
2018-03-30T18:27:02.482Z,13.32
2018-03-30T18:29:30.969Z,13.35
2018-03-30T18:31:58.758Z,13.32
2018-03-30T18:34:26.785Z,13.36
2018-03-30T18:36:54.425Z,13.34
2018-03-30T18:39:23.286Z,13.32
2018-03-30T18:41:50.943Z,13.30
2018-03-30T18:44:18.959Z,13.27
2018-03-30T18:46:46.701Z,13.32
2018-03-30T18:49:14.191Z,13.31
2018-03-30T18:51:41.712Z,13.24
2018-03-30T18:54:09.453Z,13.26
2018-03-30T18:56:36.920Z,13.21
2018-03-30T18:59:05.122Z,13.18
2018-03-30T19:01:32.905Z,13.20
2018-03-30T19:04:00.500Z,13.25
2018-03-30T19:06:28.301Z,13.16
2018-03-30T19:08:56.184Z,13.03
2018-03-30T19:11:23.751Z,13.04
2018-03-30T19:13:51.517Z,13.03
2018-03-30T19:16:19.435Z,13.02
2018-03-30T19:18:47.034Z,13.02
2018-03-30T19:21:14.605Z,12.95
2018-03-30T19:23:42.456Z,12.88
2018-03-30T19:26:09.940Z,12.90
2018-03-30T19:28:37.441Z,12.78
2018-03-30T19:31:05.209Z,12.78
2018-03-30T19:33:33.358Z,12.75
2018-03-30T19:36:02.146Z,12.60
2018-03-30T19:38:29.648Z,12.54
2018-03-30T19:40:57.144Z,12.51
2018-03-30T19:43:24.884Z,12.43
2018-03-30T19:45:52.357Z,12.29
2018-03-30T19:48:20.966Z,12.27
2018-03-30T19:50:48.497Z,12.43
2018-03-30T19:53:16.584Z,12.46
2018-03-30T19:55:44.347Z,12.32
2018-03-30T19:58:11.868Z,12.33
2018-03-30T20:00:39.343Z,12.25
2018-03-30T20:03:07.126Z,12.18
2018-03-30T20:05:34.927Z,12.05
2018-03-30T20:08:03.266Z,11.99
2018-03-30T20:10:31.098Z,12.03
2018-03-30T20:12:58.868Z,11.94
2018-03-30T20:15:26.379Z,11.98
2018-03-30T20:17:53.902Z,12.02
2018-03-30T20:20:21.538Z,12.08
2018-03-30T20:22:49.303Z,12.12
2018-03-30T20:25:16.813Z,12.23
2018-03-30T20:27:44.366Z,12.19
2018-03-30T20:30:11.965Z,12.15
2018-03-30T20:32:39.428Z,12.14
2018-03-30T20:35:07.367Z,12.15
2018-03-30T20:37:34.849Z,12.14
2018-03-30T20:40:03.210Z,12.07
2018-03-30T20:42:30.993Z,12.06
2018-03-30T20:44:58.461Z,12.14
2018-03-30T20:47:25.958Z,12.09
2018-03-30T20:49:53.700Z,11.99
2018-03-30T20:52:21.281Z,11.97
2018-03-30T20:54:48.768Z,12.01
2018-03-30T20:57:16.647Z,11.95
2018-03-30T20:59:44.190Z,11.86
2018-03-30T21:02:11.686Z,11.94
2018-03-30T21:04:39.608Z,11.99
2018-03-30T21:07:13.144Z,11.98
2018-03-30T21:09:40.959Z,12.01
2018-03-30T21:12:08.414Z,12.04
2018-03-30T21:14:36.293Z,12.07
2018-03-30T21:17:04.117Z,12.03
2018-03-30T21:19:31.714Z,12.00
2018-03-30T21:21:59.225Z,11.96
2018-03-30T21:24:27.262Z,11.96
2018-03-30T21:26:54.705Z,11.96
2018-03-30T21:29:22.373Z,11.89
2018-03-30T21:31:50.101Z,11.94
2018-03-30T21:34:17.560Z,11.91
2018-03-30T21:36:45.037Z,11.88
2018-03-30T21:39:12.910Z,11.92
2018-03-30T21:41:40.389Z,11.94
2018-03-30T21:44:07.965Z,11.94
2018-03-30T21:46:35.776Z,11.93
2018-03-30T21:49:03.388Z,11.92
2018-03-30T21:51:30.852Z,11.93
2018-03-30T21:53:58.639Z,11.91
2018-03-30T21:56:26.408Z,11.79
2018-03-30T21:58:53.866Z,11.71
2018-03-30T22:01:21.646Z,11.65
2018-03-30T22:03:49.113Z,11.58
2018-03-30T22:06:16.962Z,11.56
2018-03-30T22:08:44.440Z,11.52
2018-03-30T22:11:11.896Z,11.48
2018-03-30T22:13:39.627Z,11.43
2018-03-30T22:16:07.256Z,11.41
2018-03-30T22:18:34.735Z,11.28
2018-03-30T22:21:02.778Z,11.28
2018-03-30T22:23:30.284Z,11.29
2018-03-30T22:25:57.756Z,11.24
2018-03-30T22:28:25.219Z,11.26
2018-03-30T22:30:53.006Z,11.24
2018-03-30T22:33:20.882Z,11.21
2018-03-30T22:35:48.337Z,11.25
2018-03-30T22:38:16.104Z,11.27
2018-03-30T22:40:43.601Z,11.23
2018-03-30T22:43:11.069Z,11.09
2018-03-30T22:45:38.859Z,11.08
2018-03-30T22:48:06.370Z,11.04
2018-03-30T22:50:33.876Z,11.05
2018-03-30T22:53:01.816Z,11.05
2018-03-30T22:55:29.530Z,11.04
2018-03-30T22:57:57.018Z,10.98
2018-03-30T23:00:25.304Z,10.99
2018-03-30T23:02:52.792Z,11.03
2018-03-30T23:06:22.655Z,10.98
2018-03-30T23:08:50.141Z,10.86
2018-03-30T23:11:17.652Z,10.82
2018-03-30T23:13:45.779Z,10.77
2018-03-30T23:16:13.205Z,10.79
2018-03-30T23:18:40.655Z,10.74
2018-03-30T23:21:08.554Z,10.73
2018-03-30T23:23:36.034Z,10.73
2018-03-30T23:26:04.127Z,10.77
2018-03-30T23:28:32.016Z,10.71
2018-03-30T23:30:59.568Z,10.68
2018-03-30T23:33:27.039Z,10.66
2018-03-30T23:35:55.108Z,10.69
2018-03-30T23:38:22.574Z,10.64
2018-03-30T23:40:50.074Z,10.59
2018-03-30T23:43:17.858Z,10.57
2018-03-30T23:45:45.333Z,10.51
2018-03-30T23:48:12.816Z,10.48
2018-03-30T23:50:41.570Z,10.49
2018-03-30T23:53:09.022Z,10.51
2018-03-30T23:55:36.493Z,10.49
2018-03-30T23:58:05.072Z,10.49
